Time;durP1;ratioP1;P1;durP2;ratioP2;P2;SDS_P1;SDS_P2;PMS_P1;PMS_P2;Temp;Humidity;BMP_temperature;BMP_pressure;BME280_temperature;BME280_humidity;BME280_pressure;Samples;Min_cycle;Max_cycle;Signal;HPM_P1;HPM_P2
2022/05/02 00:00:25;;;;;;;6.30;4.03;;;12.90;75.20;;;;;;5125745;27;45209;-81
2022/05/02 00:02:52;;;;;;;6.95;4.60;;;12.90;75.00;;;;;;5128927;27;45509;-81
2022/05/02 00:05:19;;;;;;;6.32;4.53;;;12.90;75.50;;;;;;5129957;27;46446;-81
2022/05/02 00:07:48;;;;;;;6.18;4.47;;;12.90;73.70;;;;;;5126277;27;45355;-81
2022/05/02 00:10:15;;;;;;;9.80;5.00;;;12.80;74.00;;;;;;5130359;27;45684;-81
2022/05/02 00:12:42;;;;;;;7.80;4.82;;;12.80;74.30;;;;;;5126433;27;45157;-81
2022/05/02 00:15:10;;;;;;;6.70;4.35;;;12.70;75.00;;;;;;5128342;27;46228;-82
2022/05/02 00:20:21;;;;;;;7.93;4.78;;;12.70;75.60;;;;;;5122556;27;45209;-82
2022/05/02 00:22:50;;;;;;;7.55;4.80;;;12.80;76.50;;;;;;5131444;27;45346;-81
2022/05/02 00:25:17;;;;;;;8.60;4.13;;;12.70;76.20;;;;;;5128791;27;45648;-82
2022/05/02 00:27:44;;;;;;;6.95;3.97;;;12.70;76.30;;;;;;5129656;27;46254;-81
2022/05/02 00:30:13;;;;;;;6.93;4.90;;;12.70;76.20;;;;;;5130165;27;45361;-81
2022/05/02 00:32:41;;;;;;;8.55;4.82;;;12.70;76.60;;;;;;5130057;27;45504;-81
2022/05/02 00:35:09;;;;;;;7.32;4.78;;;12.70;77.10;;;;;;5133098;27;46612;-80
2022/05/02 00:37:36;;;;;;;6.72;4.25;;;12.60;76.70;;;;;;5125818;27;45292;-80
2022/05/02 00:40:05;;;;;;;6.63;4.18;;;12.60;75.80;;;;;;5123507;27;45252;-81
2022/05/02 00:42:32;;;;;;;6.03;4.47;;;12.50;76.10;;;;;;5129556;27;45250;-83
2022/05/02 00:44:59;;;;;;;7.10;4.70;;;12.30;77.70;;;;;;5129358;27;47342;-81
2022/05/02 00:47:27;;;;;;;8.88;4.70;;;12.20;77.00;;;;;;5130571;27;45212;-80
2022/05/02 00:49:54;;;;;;;6.35;4.60;;;12.10;78.40;;;;;;5129085;27;45296;-83
2022/05/02 00:52:21;;;;;;;6.63;4.90;;;12.30;79.10;;;;;;5127095;27;45267;-81
2022/05/02 00:54:48;;;;;;;6.70;4.50;;;12.40;77.80;;;;;;5128407;27;45475;-81
2022/05/02 00:57:17;;;;;;;7.07;4.68;;;12.40;78.50;;;;;;5130455;27;45236;-81
2022/05/02 00:59:45;;;;;;;7.03;4.28;;;12.40;79.20;;;;;;5119652;27;45246;-81
2022/05/02 01:02:14;;;;;;;7.82;5.00;;;12.50;79.40;;;;;;5129554;27;45209;-81
2022/05/02 01:04:42;;;;;;;9.45;4.55;;;12.50;79.30;;;;;;5121068;27;47287;-81
2022/05/02 01:07:11;;;;;;;8.82;5.00;;;12.50;80.20;;;;;;5130077;27;45250;-81
2022/05/02 01:09:41;;;;;;;8.52;4.53;;;12.40;78.60;;;;;;5120866;27;45539;-81
2022/05/02 01:12:11;;;;;;;6.20;4.60;;;12.40;79.30;;;;;;5129155;27;45169;-83
2022/05/02 01:14:40;;;;;;;10.82;4.75;;;12.50;77.50;;;;;;5125871;27;47423;-82
2022/05/02 01:17:07;;;;;;;8.82;4.72;;;12.40;77.90;;;;;;5130628;27;45245;-82
2022/05/02 01:19:35;;;;;;;5.50;3.92;;;12.40;77.20;;;;;;5129655;27;45163;-82
2022/05/02 01:22:04;;;;;;;6.55;4.30;;;12.30;77.20;;;;;;5128714;27;45402;-81
2022/05/02 01:24:39;;;;;;;7.00;4.75;;;12.30;77.50;;;;;;5124216;27;46654;-82
2022/05/02 01:27:06;;;;;;;8.15;5.03;;;12.30;77.60;;;;;;5126841;27;45206;-83
2022/05/02 01:29:35;;;;;;;7.43;4.35;;;12.20;78.20;;;;;;5134196;27;45211;-83
2022/05/02 01:32:06;;;;;;;10.35;5.72;;;12.30;78.00;;;;;;5126936;27;45430;-84
2022/05/02 01:34:33;;;;;;;8.05;4.68;;;12.30;77.70;;;;;;5128761;27;45471;-84
2022/05/02 01:37:00;;;;;;;9.38;5.03;;;12.30;78.50;;;;;;5115630;27;45147;-84
2022/05/02 01:39:28;;;;;;;8.00;4.95;;;12.40;77.60;;;;;;5116317;27;45214;-84
2022/05/02 01:41:55;;;;;;;8.23;5.43;;;12.30;77.20;;;;;;5131397;27;45204;-83
2022/05/02 01:44:22;;;;;;;8.77;5.57;;;12.20;77.20;;;;;;5127615;27;46526;-81
2022/05/02 01:46:49;;;;;;;8.02;4.88;;;12.20;77.80;;;;;;5128997;27;45609;-82
2022/05/02 01:49:16;;;;;;;10.40;4.93;;;12.20;77.60;;;;;;5128088;27;45132;-82
2022/05/02 01:51:43;;;;;;;8.60;5.18;;;12.30;76.10;;;;;;5128574;27;45072;-84
2022/05/02 01:54:09;;;;;;;8.50;5.63;;;12.30;77.30;;;;;;5128729;27;48182;-82
2022/05/02 01:56:37;;;;;;;7.60;5.13;;;12.30;77.30;;;;;;5128610;27;45237;-82
2022/05/02 01:59:05;;;;;;;8.10;5.28;;;12.30;77.20;;;;;;5127962;27;45174;-82
2022/05/02 02:01:32;;;;;;;13.02;5.43;;;12.20;79.80;;;;;;5130157;27;45345;-82
2022/05/02 02:04:00;;;;;;;7.50;4.90;;;12.40;78.70;;;;;;5128863;27;47937;-84
2022/05/02 02:06:26;;;;;;;8.70;5.03;;;12.40;78.40;;;;;;5127095;27;45641;-84
2022/05/02 02:08:54;;;;;;;8.95;5.47;;;12.30;78.50;;;;;;5127015;27;45530;-83
2022/05/02 02:11:21;;;;;;;12.60;5.78;;;12.20;78.30;;;;;;5127791;27;45518;-83
2022/05/02 02:13:49;;;;;;;8.13;5.07;;;12.20;78.40;;;;;;5120778;27;45452;-84
2022/05/02 02:16:17;;;;;;;8.48;5.30;;;12.20;78.10;;;;;;5126900;27;45235;-84
2022/05/02 02:18:44;;;;;;;8.88;5.28;;;12.20;78.00;;;;;;5124265;27;45204;-83
2022/05/02 02:21:12;;;;;;;9.88;4.63;;;12.20;78.50;;;;;;5129627;27;45153;-83
2022/05/02 02:23:39;;;;;;;7.30;4.90;;;12.20;79.40;;;;;;5138732;27;48304;-84
2022/05/02 02:26:07;;;;;;;9.32;5.88;;;12.30;78.80;;;;;;5127456;27;45226;-83
2022/05/02 02:28:34;;;;;;;9.65;5.60;;;12.20;78.50;;;;;;5129620;27;45269;-84
2022/05/02 02:31:02;;;;;;;6.32;4.53;;;12.30;79.40;;;;;;5122145;27;45676;-84
2022/05/02 02:33:29;;;;;;;10.80;6.50;;;12.20;80.00;;;;;;5129515;27;46979;-84
2022/05/02 02:35:56;;;;;;;8.13;5.28;;;12.20;80.30;;;;;;5128254;27;45197;-84
2022/05/02 02:38:22;;;;;;;7.93;5.03;;;12.20;81.70;;;;;;5128546;27;45201;-84
2022/05/02 02:40:49;;;;;;;6.80;4.85;;;12.20;80.70;;;;;;5128381;27;45344;-84
2022/05/02 02:43:16;;;;;;;8.82;5.30;;;12.20;81.20;;;;;;5127809;27;45354;-84
2022/05/02 02:45:43;;;;;;;9.80;5.75;;;12.20;79.70;;;;;;5127445;27;45225;-82
2022/05/02 02:48:11;;;;;;;9.38;5.47;;;12.10;80.60;;;;;;5127625;27;45425;-82
2022/05/02 02:50:38;;;;;;;8.82;5.47;;;12.10;80.40;;;;;;5128916;27;45297;-82
2022/05/02 02:53:05;;;;;;;8.93;5.40;;;12.00;81.10;;;;;;5129212;27;47522;-83
2022/05/02 02:55:32;;;;;;;8.10;5.32;;;12.00;80.50;;;;;;5126178;27;45313;-82
2022/05/02 02:57:59;;;;;;;9.32;6.55;;;12.10;80.80;;;;;;5129030;27;45188;-82
2022/05/02 03:00:26;;;;;;;9.65;5.45;;;12.10;80.70;;;;;;5121610;27;45246;-82
2022/05/02 03:02:54;;;;;;;9.88;4.85;;;12.20;81.50;;;;;;5125095;27;46502;-82
2022/05/02 03:08:10;;;;;;;9.43;5.63;;;12.10;82.20;;;;;;5122622;27;45375;-82
2022/05/02 03:10:37;;;;;;;8.88;5.70;;;12.10;82.40;;;;;;5125289;27;45526;-82
2022/05/02 03:13:04;;;;;;;8.73;5.78;;;12.20;81.30;;;;;;5126478;27;46341;-82
2022/05/02 03:15:31;;;;;;;9.60;6.03;;;12.10;82.10;;;;;;5127131;27;45255;-82
2022/05/02 03:17:58;;;;;;;10.73;5.72;;;12.20;81.40;;;;;;5125826;27;45202;-82
2022/05/02 03:20:26;;;;;;;8.65;6.10;;;12.20;82.20;;;;;;5116881;27;45351;-82
2022/05/02 03:22:53;;;;;;;8.63;5.82;;;12.10;82.00;;;;;;5121888;27;47867;-82
2022/05/02 03:25:20;;;;;;;16.33;6.45;;;12.10;82.10;;;;;;5122201;27;45366;-82
2022/05/02 03:27:47;;;;;;;9.60;5.88;;;12.10;83.20;;;;;;5129687;27;45196;-82
2022/05/02 03:30:14;;;;;;;7.40;5.68;;;12.20;82.60;;;;;;5128011;27;45419;-82
2022/05/02 03:32:41;;;;;;;9.50;5.40;;;12.20;81.80;;;;;;5125796;27;48201;-82
2022/05/02 03:35:09;;;;;;;8.93;5.68;;;12.10;82.40;;;;;;5127907;27;45152;-82
2022/05/02 03:37:37;;;;;;;9.95;6.40;;;12.10;82.40;;;;;;5127663;27;45295;-82
2022/05/02 03:40:04;;;;;;;9.43;5.75;;;12.20;82.70;;;;;;5127364;27;45362;-82
2022/05/02 03:42:31;;;;;;;10.50;6.22;;;12.20;83.10;;;;;;5128327;27;47405;-82
2022/05/02 03:44:58;;;;;;;10.82;6.18;;;12.20;82.10;;;;;;5123731;27;45296;-82
2022/05/02 03:47:25;;;;;;;8.88;6.00;;;12.10;82.40;;;;;;5129053;27;45491;-82
2022/05/02 03:49:51;;;;;;;9.45;6.65;;;12.10;82.90;;;;;;5126121;27;45365;-82
2022/05/02 03:52:18;;;;;;;8.40;6.22;;;12.00;83.00;;;;;;5128225;27;46332;-82
2022/05/02 03:54:46;;;;;;;9.57;6.40;;;12.00;83.40;;;;;;5125527;27;45286;-81
2022/05/02 03:57:13;;;;;;;10.13;5.80;;;12.00;84.00;;;;;;5128917;27;45258;-81
2022/05/02 03:59:40;;;;;;;9.95;6.97;;;12.00;83.30;;;;;;5125832;27;45572;-80
2022/05/02 04:02:07;;;;;;;10.00;6.25;;;12.10;83.60;;;;;;5126072;27;46499;-81
2022/05/02 04:04:33;;;;;;;10.13;6.22;;;12.00;83.80;;;;;;5127546;27;45467;-81
2022/05/02 04:07:00;;;;;;;10.20;7.00;;;12.00;84.10;;;;;;5121709;27;45226;-81
2022/05/02 04:09:27;;;;;;;11.02;6.72;;;12.10;83.50;;;;;;5122806;27;45355;-81
2022/05/02 04:11:56;;;;;;;11.10;6.70;;;12.10;83.90;;;;;;5129621;27;46350;-81
2022/05/02 04:14:23;;;;;;;15.38;6.68;;;12.10;83.50;;;;;;5122630;27;45503;-81
2022/05/02 04:16:50;;;;;;;9.93;6.40;;;12.00;83.70;;;;;;5123032;27;45274;-83
2022/05/02 04:19:17;;;;;;;10.18;6.47;;;11.90;84.70;;;;;;5126546;27;45186;-83
2022/05/02 04:21:44;;;;;;;10.10;7.07;;;11.90;84.60;;;;;;5127477;27;45454;-82
2022/05/02 04:24:11;;;;;;;9.55;6.47;;;12.00;85.30;;;;;;5125999;27;45495;-82
2022/05/02 04:26:38;;;;;;;10.80;6.80;;;12.00;85.10;;;;;;5122658;27;45237;-82
2022/05/02 04:29:06;;;;;;;11.90;6.55;;;12.10;84.90;;;;;;5122271;27;45438;-82
2022/05/02 04:31:33;;;;;;;10.15;6.63;;;12.00;84.90;;;;;;5125897;27;46248;-83
2022/05/02 04:33:59;;;;;;;12.98;6.57;;;12.00;84.80;;;;;;5120105;27;45285;-83
2022/05/02 04:36:26;;;;;;;9.43;7.03;;;11.90;85.60;;;;;;5127808;27;45466;-83
2022/05/02 04:38:53;;;;;;;12.05;6.93;;;11.90;85.50;;;;;;5121462;27;45222;-82
2022/05/02 04:41:20;;;;;;;11.02;6.80;;;11.90;85.60;;;;;;5127435;27;45277;-83
2022/05/02 04:43:51;;;;;;;9.57;6.43;;;12.00;85.70;;;;;;5128546;27;45354;-84
2022/05/02 04:46:19;;;;;;;12.25;6.32;;;12.10;85.20;;;;;;5131161;27;45135;-83
2022/05/02 04:48:46;;;;;;;9.45;6.43;;;12.10;84.10;;;;;;5129865;27;45349;-84
2022/05/02 04:51:13;;;;;;;10.98;6.47;;;12.10;82.40;;;;;;5124880;27;45484;-84
2022/05/02 04:53:40;;;;;;;11.00;6.50;;;12.10;83.90;;;;;;5128106;27;45247;-84
2022/05/02 04:56:07;;;;;;;10.82;6.03;;;12.20;83.40;;;;;;5132057;27;45234;-82
2022/05/02 04:58:33;;;;;;;11.50;6.28;;;12.30;83.40;;;;;;5122477;27;45120;-81
2022/05/02 05:01:00;;;;;;;9.50;6.72;;;12.40;82.90;;;;;;5117600;27;47900;-81
2022/05/02 05:03:28;;;;;;;8.55;5.97;;;12.30;83.60;;;;;;5125472;27;46321;-82
2022/05/02 05:05:56;;;;;;;11.60;6.90;;;12.20;84.20;;;;;;5120066;27;45645;-80
2022/05/02 05:08:22;;;;;;;11.07;7.32;;;12.10;84.60;;;;;;5122997;27;45264;-82
2022/05/02 05:10:59;;;;;;;9.80;5.75;;;12.00;85.60;;;;;;5124732;27;46194;-84
2022/05/02 05:13:33;;;;;;;8.30;6.03;;;12.00;86.10;;;;;;5117541;27;45139;-82
2022/05/02 05:16:26;;;;;;;10.02;6.45;;;12.20;85.10;;;;;;5125672;27;45325;-81
2022/05/02 05:19:04;;;;;;;9.73;5.72;;;12.10;85.50;;;;;;5123244;27;45468;-82
2022/05/02 05:21:45;;;;;;;7.88;5.95;;;12.10;85.90;;;;;;5117568;27;46951;-83
2022/05/02 05:24:49;;;;;;;8.18;5.93;;;12.20;84.60;;;;;;5118830;27;45220;-85
2022/05/02 05:27:27;;;;;;;10.88;6.25;;;12.10;85.20;;;;;;5121958;27;45373;-83
2022/05/02 05:30:02;;;;;;;9.25;6.10;;;12.10;85.90;;;;;;5124840;27;46160;-84
2022/05/02 05:32:38;;;;;;;12.70;6.78;;;12.30;86.30;;;;;;5123356;27;47747;-84
2022/05/02 05:35:07;;;;;;;11.43;6.22;;;12.30;85.30;;;;;;5128097;27;45378;-83
2022/05/02 05:38:02;;;;;;;7.50;5.40;;;12.30;83.80;;;;;;5129012;27;45441;-82
2022/05/02 05:40:37;;;;;;;9.10;5.90;;;12.30;84.30;;;;;;5117881;27;45593;-83
2022/05/02 05:43:15;;;;;;;13.40;6.60;;;12.40;83.30;;;;;;5121169;27;45742;-83
2022/05/02 05:45:55;;;;;;;10.27;7.25;;;12.40;82.70;;;;;;5122426;27;45349;-83
2022/05/02 05:48:31;;;;;;;10.48;7.03;;;12.20;85.30;;;;;;5122566;27;45239;-82
2022/05/02 05:51:14;;;;;;;8.45;6.55;;;12.20;84.80;;;;;;5125727;27;45344;-82
2022/05/02 05:53:54;;;;;;;10.27;7.07;;;12.30;84.90;;;;;;5125842;27;46677;-83
2022/05/02 05:56:35;;;;;;;12.35;7.32;;;12.20;84.40;;;;;;5121051;27;46025;-82
2022/05/02 05:59:08;;;;;;;11.55;7.25;;;12.20;85.30;;;;;;5121828;27;45235;-83
2022/05/02 06:01:49;;;;;;;13.20;7.00;;;12.30;84.90;;;;;;5124920;27;45233;-85
2022/05/02 06:04:17;;;;;;;12.27;7.90;;;12.40;84.40;;;;;;5121158;27;47405;-83
2022/05/02 06:06:48;;;;;;;10.82;7.18;;;12.50;84.90;;;;;;5122690;27;46201;-83
2022/05/02 06:09:15;;;;;;;10.82;7.25;;;12.40;84.50;;;;;;5122472;27;45282;-84
2022/05/02 06:11:46;;;;;;;13.55;7.20;;;12.40;85.40;;;;;;5117546;27;45379;-83
2022/05/02 06:14:14;;;;;;;8.55;6.28;;;12.40;85.50;;;;;;5123194;27;46514;-84
2022/05/02 06:19:32;;;;;;;9.38;6.07;;;12.40;83.90;;;;;;5121169;27;45622;-84
2022/05/02 06:22:03;;;;;;;10.73;5.70;;;12.50;86.10;;;;;;5127293;27;45403;-84
2022/05/02 06:24:33;;;;;;;9.30;5.75;;;12.70;86.40;;;;;;5128336;27;47243;-84
2022/05/02 06:27:02;;;;;;;12.30;6.25;;;12.80;85.80;;;;;;5109855;27;45144;-84
2022/05/02 06:29:29;;;;;;;13.85;6.80;;;12.90;84.80;;;;;;5128718;27;45200;-84
2022/05/02 06:31:58;;;;;;;12.95;6.20;;;12.90;82.50;;;;;;5126983;27;45268;-83
2022/05/02 06:34:28;;;;;;;8.98;5.70;;;12.80;84.20;;;;;;5129577;27;47768;-84
2022/05/02 06:37:09;;;;;;;8.75;5.72;;;12.90;82.90;;;;;;5118182;27;45283;-84
2022/05/02 06:39:50;;;;;;;10.25;6.25;;;13.40;84.30;;;;;;5126670;27;45232;-84
2022/05/02 06:42:23;;;;;;;9.68;6.40;;;13.10;84.50;;;;;;5112325;27;45724;-84
2022/05/02 06:45:07;;;;;;;12.95;7.22;;;13.00;84.70;;;;;;5122344;27;46991;-85
2022/05/02 06:47:46;;;;;;;11.93;6.68;;;13.10;82.60;;;;;;5117357;27;45192;-84
2022/05/02 06:50:18;;;;;;;10.95;6.53;;;12.90;82.70;;;;;;5128023;27;45528;-85
2022/05/02 06:53:01;;;;;;;9.32;6.22;;;13.00;82.00;;;;;;5128750;27;45214;-84
2022/05/02 06:55:36;;;;;;;9.00;5.93;;;13.00;86.10;;;;;;5120861;27;46710;-83
2022/05/02 06:58:33;;;;;;;13.35;6.50;;;13.10;83.50;;;;;;5132470;27;45130;-84
2022/05/02 07:01:12;;;;;;;7.95;5.40;;;13.10;83.10;;;;;;5127883;27;45518;-84
2022/05/02 07:03:56;;;;;;;11.18;5.70;;;13.20;83.30;;;;;;5127779;27;45405;-84
2022/05/02 07:06:34;;;;;;;10.77;6.55;;;13.30;81.80;;;;;;5118623;27;46361;-84
2022/05/02 07:09:05;;;;;;;9.90;6.18;;;13.30;81.00;;;;;;5124193;27;45266;-84
2022/05/02 07:11:44;;;;;;;10.25;5.65;;;13.30;81.40;;;;;;5128228;27;45436;-84
2022/05/02 07:14:18;;;;;;;9.15;6.00;;;13.30;81.90;;;;;;5126577;27;45675;-85
2022/05/02 07:16:50;;;;;;;10.45;5.55;;;13.30;81.00;;;;;;5125371;27;47115;-84
2022/05/02 07:19:32;;;;;;;11.13;6.60;;;13.40;81.40;;;;;;5124530;27;45330;-84
2022/05/02 07:22:02;;;;;;;10.07;6.40;;;13.40;80.10;;;;;;5124987;27;45305;-84
2022/05/02 07:24:55;;;;;;;9.00;4.88;;;13.40;80.30;;;;;;5126563;27;45427;-84
2022/05/02 07:27:44;;;;;;;11.95;5.97;;;13.40;82.10;;;;;;5123117;27;47076;-84
2022/05/02 07:30:11;;;;;;;16.08;5.93;;;13.50;81.20;;;;;;5128201;27;45225;-84
2022/05/02 07:32:38;;;;;;;7.72;5.35;;;13.60;81.70;;;;;;5122537;27;46221;-84
2022/05/02 07:35:07;;;;;;;12.48;6.20;;;13.50;82.20;;;;;;5127213;27;45163;-84
2022/05/02 07:37:37;;;;;;;9.50;5.88;;;13.50;79.10;;;;;;5127678;27;46496;-84
2022/05/02 07:40:07;;;;;;;7.32;5.03;;;13.60;80.50;;;;;;5127213;27;45418;-84
2022/05/02 07:42:36;;;;;;;9.63;6.13;;;13.70;79.60;;;;;;5128102;27;45244;-84
2022/05/02 07:45:07;;;;;;;8.40;5.60;;;13.70;78.60;;;;;;5127664;27;45539;-84
2022/05/02 07:47:34;;;;;;;13.68;5.70;;;13.60;81.30;;;;;;5116429;27;47213;-84
2022/05/02 07:50:03;;;;;;;6.97;4.43;;;13.70;80.90;;;;;;5128130;27;45231;-83
2022/05/02 07:52:31;;;;;;;8.75;5.45;;;13.90;79.60;;;;;;5127784;27;45289;-84
2022/05/02 07:55:01;;;;;;;8.35;4.95;;;13.80;80.10;;;;;;5125652;27;45698;-85
2022/05/02 07:57:36;;;;;;;6.00;4.75;;;13.90;77.20;;;;;;5128161;27;47117;-85
2022/05/02 08:00:07;;;;;;;8.55;4.55;;;13.80;78.20;;;;;;5121592;27;45596;-83
2022/05/02 08:02:34;;;;;;;12.10;5.47;;;14.40;79.20;;;;;;5119238;27;45530;-84
2022/05/02 08:05:01;;;;;;;8.25;4.88;;;14.10;77.50;;;;;;5125104;27;45180;-85
2022/05/02 08:07:32;;;;;;;7.90;4.93;;;13.90;78.10;;;;;;5117298;27;46482;-84
2022/05/02 08:10:20;;;;;;;9.45;5.90;;;13.90;78.40;;;;;;5125285;27;45254;-84
2022/05/02 08:12:54;;;;;;;6.68;4.93;;;13.90;77.00;;;;;;5124053;27;45324;-84
2022/05/02 08:15:26;;;;;;;8.50;5.20;;;13.90;77.70;;;;;;5128567;27;45371;-84
2022/05/02 08:18:18;;;;;;;11.70;5.22;;;13.90;78.20;;;;;;5126035;27;48378;-85
2022/05/02 08:20:50;;;;;;;5.97;3.97;;;14.00;77.30;;;;;;5112766;27;45366;-85
2022/05/02 08:29:24;;;;;;;9.73;4.60;;;14.20;75.90;;;;;;5131856;27;45741;-85
2022/05/02 08:32:01;;;;;;;7.88;4.35;;;14.40;75.30;;;;;;5129833;27;45449;-85
2022/05/02 08:34:35;;;;;;;8.60;4.90;;;14.40;74.90;;;;;;5122667;27;46686;-84
2022/05/02 08:37:18;;;;;;;7.30;5.03;;;14.10;78.00;;;;;;5116302;27;45256;-84
2022/05/02 08:39:59;;;;;;;11.23;5.20;;;14.20;76.30;;;;;;5120249;27;48321;-84
2022/05/02 08:42:57;;;;;;;8.30;4.40;;;14.20;75.70;;;;;;5125235;27;46073;-86
2022/05/02 08:45:49;;;;;;;7.32;4.00;;;14.50;76.10;;;;;;5137040;27;45211;-85
2022/05/02 08:48:41;;;;;;;7.10;4.70;;;14.50;75.40;;;;;;5129004;27;45308;-85
2022/05/02 08:51:46;;;;;;;13.00;5.68;;;14.40;76.10;;;;;;5129916;27;48291;-84
2022/05/02 08:54:39;;;;;;;8.15;4.80;;;14.30;73.70;;;;;;5117106;27;45491;-84
2022/05/02 08:57:27;;;;;;;6.60;4.53;;;14.30;74.50;;;;;;5125464;27;45202;-85
2022/05/02 09:00:08;;;;;;;9.13;5.03;;;14.40;76.80;;;;;;5128822;27;45303;-85
2022/05/02 09:03:25;;;;;;;9.32;4.68;;;14.40;76.80;;;;;;5123284;27;45415;-85
2022/05/02 09:06:19;;;;;;;7.22;4.00;;;14.60;75.40;;;;;;5115643;27;45444;-84
2022/05/02 09:09:15;;;;;;;6.78;4.80;;;14.80;73.00;;;;;;5109929;27;45234;-84
2022/05/02 09:12:04;;;;;;;8.52;4.43;;;14.70;72.60;;;;;;5123495;27;45828;-84
2022/05/02 09:15:10;;;;;;;7.50;4.38;;;14.70;73.00;;;;;;5118135;27;46653;-85
2022/05/02 09:18:22;;;;;;;7.97;4.88;;;14.70;72.40;;;;;;5109766;27;45469;-84
2022/05/02 09:20:58;;;;;;;11.82;5.75;;;14.70;72.80;;;;;;5120071;27;45313;-84
2022/05/02 09:24:23;;;;;;;9.68;5.38;;;14.70;72.80;;;;;;5130709;27;45151;-84
2022/05/02 09:27:14;;;;;;;7.53;4.32;;;14.80;72.20;;;;;;5111465;27;48236;-84
2022/05/02 09:30:23;;;;;;;6.47;3.28;;;15.20;70.20;;;;;;5118164;27;45349;-85
2022/05/02 09:33:26;;;;;;;8.25;4.20;;;15.60;69.80;;;;;;5125293;27;45504;-86
2022/05/02 09:35:54;;;;;;;5.72;3.40;;;15.40;70.10;;;;;;5114114;27;45456;-85
2022/05/02 09:38:25;;;;;;;4.97;3.53;;;15.70;69.90;;;;;;5115962;27;45256;-83
2022/05/02 09:41:00;;;;;;;5.15;3.20;;;15.70;69.60;;;;;;5139842;27;44798;-86
2022/05/02 09:50:01;;;;;;;8.52;4.00;;;15.90;68.90;;;;;;5122826;27;45237;-84
2022/05/02 09:52:32;;;;;;;8.07;4.20;;;15.90;68.70;;;;;;5115296;27;45231;-85
2022/05/02 09:58:16;;;;;;;9.45;5.43;;;15.30;67.40;;;;;;5125663;27;45246;-85
2022/05/02 10:01:09;;;;;;;7.40;4.25;;;15.30;67.90;;;;;;5120007;27;46485;-85
2022/05/02 10:03:39;;;;;;;8.30;4.75;;;15.20;69.70;;;;;;5119245;27;45730;-85
2022/05/02 10:06:11;;;;;;;9.50;4.80;;;15.30;68.30;;;;;;5122616;27;45296;-84
2022/05/02 10:09:00;;;;;;;9.00;4.88;;;15.50;69.40;;;;;;5115463;27;45451;-85
2022/05/02 10:11:49;;;;;;;10.82;5.18;;;15.90;67.70;;;;;;5123437;27;45636;-85
2022/05/02 10:14:35;;;;;;;7.72;4.32;;;16.00;65.60;;;;;;5124772;27;45222;-85
2022/05/02 10:17:07;;;;;;;9.40;4.97;;;16.20;66.30;;;;;;5125268;27;45085;-85
2022/05/02 10:20:04;;;;;;;7.15;4.10;;;16.10;65.40;;;;;;5117138;27;45405;-86
2022/05/02 10:22:44;;;;;;;8.45;4.97;;;16.00;65.40;;;;;;5124104;27;47190;-86
2022/05/02 10:25:18;;;;;;;8.10;4.60;;;16.30;65.40;;;;;;5121519;27;45344;-86
2022/05/02 10:28:04;;;;;;;5.85;3.05;;;16.20;64.20;;;;;;5129836;27;45156;-86
2022/05/02 10:30:42;;;;;;;7.63;5.03;;;16.80;62.60;;;;;;5084352;27;45205;-86
2022/05/02 10:33:14;;;;;;;9.57;3.92;;;16.40;64.20;;;;;;5126417;27;47036;-84
2022/05/02 10:35:45;;;;;;;8.40;3.80;;;16.30;63.60;;;;;;5125327;27;45818;-84
2022/05/02 10:38:19;;;;;;;8.68;3.55;;;16.60;63.50;;;;;;5118870;27;46154;-84
2022/05/02 10:40:47;;;;;;;14.27;5.20;;;16.50;63.10;;;;;;5123321;27;45206;-84
2022/05/02 10:43:22;;;;;;;5.57;3.88;;;16.10;64.40;;;;;;5122256;27;47528;-85
2022/05/02 10:45:50;;;;;;;9.40;5.20;;;16.20;64.60;;;;;;5118518;27;45336;-84
2022/05/02 10:48:30;;;;;;;7.80;4.25;;;16.10;65.70;;;;;;5116756;27;45604;-84
2022/05/02 10:51:05;;;;;;;8.98;4.80;;;16.40;65.40;;;;;;5124156;27;45397;-85
2022/05/02 10:53:58;;;;;;;9.27;6.20;;;16.20;62.90;;;;;;5115285;27;45637;-85
2022/05/02 10:56:34;;;;;;;12.32;5.90;;;16.00;64.20;;;;;;5122747;27;45188;-85
2022/05/02 10:59:04;;;;;;;10.30;6.28;;;16.00;63.00;;;;;;5120147;27;45263;-84
2022/05/02 11:02:07;;;;;;;10.70;6.10;;;16.20;64.60;;;;;;5111254;27;45174;-84
2022/05/02 11:04:57;;;;;;;6.47;3.90;;;16.60;62.70;;;;;;5121015;27;46399;-84
2022/05/02 11:07:29;;;;;;;6.75;3.53;;;16.30;61.70;;;;;;5123164;27;45170;-84
2022/05/02 11:10:05;;;;;;;7.68;4.28;;;16.90;64.00;;;;;;5126149;27;45190;-85
2022/05/02 11:12:38;;;;;;;8.38;5.35;;;16.70;57.60;;;;;;5115893;27;45333;-85
2022/05/02 11:15:07;;;;;;;8.32;4.63;;;17.00;59.20;;;;;;5118679;27;46723;-83
2022/05/02 11:17:47;;;;;;;6.35;4.18;;;16.50;61.80;;;;;;5122799;27;45332;-84
2022/05/02 11:23:28;;;;;;;10.65;3.97;;;16.50;61.40;;;;;;5128318;27;45549;-83
2022/05/02 11:26:09;;;;;;;10.63;5.28;;;16.50;62.10;;;;;;5125120;27;47300;-83
2022/05/02 11:28:47;;;;;;;6.93;3.95;;;16.40;58.20;;;;;;5136584;27;45404;-83
2022/05/02 11:31:23;;;;;;;8.32;4.82;;;16.90;59.20;;;;;;5124798;27;45356;-84
2022/05/02 11:34:02;;;;;;;10.27;4.82;;;16.90;60.10;;;;;;5127188;27;45192;-83
2022/05/02 11:36:33;;;;;;;7.25;4.75;;;16.60;62.00;;;;;;5114112;27;46258;-84
2022/05/02 11:39:05;;;;;;;8.13;5.00;;;16.50;59.70;;;;;;5112241;27;45361;-82
2022/05/02 11:41:34;;;;;;;5.90;3.35;;;16.60;58.70;;;;;;5115591;27;45183;-82
2022/05/02 11:44:12;;;;;;;6.60;3.72;;;16.50;59.00;;;;;;5122760;27;45939;-83
2022/05/02 11:46:57;;;;;;;7.22;5.13;;;16.70;56.60;;;;;;5123783;27;48247;-83
2022/05/02 11:49:53;;;;;;;5.30;4.25;;;16.60;58.10;;;;;;5122454;27;45321;-83
2022/05/02 11:52:33;;;;;;;6.13;3.40;;;16.60;58.70;;;;;;5105300;27;45340;-83
2022/05/02 11:55:01;;;;;;;7.20;3.50;;;16.70;60.10;;;;;;5118413;27;45251;-83
2022/05/02 11:57:36;;;;;;;5.32;3.58;;;16.70;58.70;;;;;;5126380;27;47895;-82
2022/05/02 12:00:09;;;;;;;10.00;5.18;;;16.80;57.80;;;;;;5121717;27;45331;-82
2022/05/02 12:02:56;;;;;;;4.63;3.38;;;16.70;58.00;;;;;;5121623;27;45260;-83
2022/05/02 12:05:27;;;;;;;7.18;4.35;;;16.70;58.80;;;;;;5125522;27;45926;-82
2022/05/02 12:07:56;;;;;;;14.02;6.30;;;16.90;59.40;;;;;;5122898;27;47172;-82
2022/05/02 12:10:34;;;;;;;12.35;5.90;;;16.80;57.40;;;;;;5126859;27;45200;-84
2022/05/02 12:13:04;;;;;;;6.60;4.15;;;16.80;58.90;;;;;;5125021;27;45513;-84
2022/05/02 12:15:31;;;;;;;4.60;2.90;;;16.70;58.20;;;;;;5127857;27;45108;-85
2022/05/02 12:18:03;;;;;;;6.43;4.25;;;16.90;59.90;;;;;;5127715;27;45473;-86
2022/05/02 12:20:32;;;;;;;8.90;5.82;;;17.20;56.70;;;;;;5120079;27;45137;-85
2022/05/02 12:23:05;;;;;;;7.88;3.85;;;16.90;56.90;;;;;;5125240;27;45287;-85
2022/05/02 12:25:35;;;;;;;8.00;3.83;;;17.10;56.50;;;;;;5128804;27;45083;-84
2022/05/02 12:28:04;;;;;;;10.65;5.43;;;17.00;59.60;;;;;;5116871;27;45329;-85
2022/05/02 12:30:32;;;;;;;8.85;5.05;;;17.00;59.50;;;;;;5125497;27;45221;-84
2022/05/02 12:33:05;;;;;;;8.65;5.47;;;17.00;58.90;;;;;;5126630;27;45396;-85
2022/05/02 12:35:40;;;;;;;7.28;4.45;;;17.00;58.50;;;;;;5126179;27;45324;-85
2022/05/02 12:38:23;;;;;;;6.28;3.90;;;16.90;58.80;;;;;;5124370;27;46186;-85
2022/05/02 12:40:57;;;;;;;5.93;4.20;;;17.10;60.60;;;;;;5125824;27;45230;-85
2022/05/02 12:43:29;;;;;;;7.03;4.63;;;17.10;56.30;;;;;;5119044;27;45171;-85
2022/05/02 12:45:57;;;;;;;9.20;4.55;;;17.20;55.90;;;;;;5116053;27;45624;-85
2022/05/02 12:48:29;;;;;;;11.35;5.50;;;17.40;57.60;;;;;;5115291;27;46465;-85
2022/05/02 12:50:58;;;;;;;8.80;4.80;;;17.20;59.00;;;;;;5123949;27;45366;-82
2022/05/02 12:56:12;;;;;;;14.02;7.60;;;17.20;59.20;;;;;;5127263;27;45440;-85
2022/05/02 13:01:42;;;;;;;10.13;6.38;;;17.20;58.10;;;;;;5108497;27;45206;-84
2022/05/02 13:04:16;;;;;;;7.63;4.55;;;17.40;59.60;;;;;;5126749;27;45168;-84
2022/05/02 13:06:44;;;;;;;9.25;5.05;;;17.50;64.90;;;;;;5129691;27;45678;-85
2022/05/02 13:09:14;;;;;;;16.98;6.45;;;17.90;56.30;;;;;;5123211;27;45981;-84
2022/05/02 13:11:42;;;;;;;10.57;6.50;;;17.80;58.90;;;;;;5128053;27;46580;-84
2022/05/02 13:14:20;;;;;;;11.90;5.13;;;17.50;58.80;;;;;;5131413;27;45275;-84
2022/05/02 13:16:48;;;;;;;10.13;6.20;;;17.70;59.80;;;;;;5143138;27;45202;-84
2022/05/02 13:19:15;;;;;;;7.68;5.32;;;17.70;55.90;;;;;;5124357;27;47566;-84
2022/05/02 13:21:42;;;;;;;9.48;6.13;;;17.80;57.60;;;;;;5117493;27;45203;-84
2022/05/02 13:24:12;;;;;;;9.68;6.15;;;17.80;58.90;;;;;;5129714;27;45229;-84
2022/05/02 13:27:02;;;;;;;9.77;5.88;;;18.00;55.80;;;;;;5127942;27;45212;-84
2022/05/02 13:30:03;;;;;;;12.15;6.57;;;18.50;56.20;;;;;;5117477;27;48044;-83
2022/05/02 13:32:35;;;;;;;11.30;6.00;;;18.20;60.30;;;;;;5120417;27;45188;-84
2022/05/02 13:35:10;;;;;;;11.05;6.35;;;18.30;57.30;;;;;;5129412;27;45280;-82
2022/05/02 13:37:51;;;;;;;13.80;6.82;;;18.00;55.20;;;;;;5120245;27;45402;-82
2022/05/02 13:40:20;;;;;;;12.77;7.03;;;18.00;57.20;;;;;;5123214;27;48280;-83
2022/05/02 13:42:53;;;;;;;11.10;5.35;;;18.10;57.70;;;;;;5125140;27;46261;-83
2022/05/02 13:45:30;;;;;;;14.68;6.53;;;18.50;55.40;;;;;;5119987;27;45344;-83
2022/05/02 13:48:02;;;;;;;11.10;5.40;;;18.30;55.90;;;;;;5119566;27;45246;-83